Estación Meteorológica Peña el Pijo (Robertgarden) [ 05/30/17 12:56:59 CEST ]

Fecha Hora Presion(HPa) Temp (°C) Humedad % Rocio (°C) Viento ( m/s) Direccion Lluvia 1Hora(mm) Lluvia 24H(mm) LLuvia Total(mm)
2017-Apr-18 01:01:46 1010.000 9.4 65 3.1         1357.67
2017-Apr-18 02:01:44 1010.200 8.1 67 2.3         1357.67
2017-Apr-18 03:01:39 1009.600 7.5 70 2.4         1357.67
2017-Apr-18 04:01:41 1009.200 8.3 69 2.9         1357.67
2017-Apr-18 05:01:44 1008.700 8.9 68 3.3         1357.67
2017-Apr-18 06:01:40 1008.500 8.9 68 3.3         1357.67
2017-Apr-18 07:01:44 1008.500 7.8 71 2.9         1357.67
2017-Apr-18 08:01:44 1008.800 6.9 74 2.6         1357.67
2017-Apr-18 09:01:50 1008.600 12.3 71 7.2         1357.67
2017-Apr-18 10:01:53 1008.100 18.9 50 8.3         1357.67
2017-Apr-18 11:01:46 1007.700 24.5 34 7.5         1357.67
2017-Apr-18 12:01:44 1007.800 26.9 27 6.2         1357.67
2017-Apr-18 13:01:36 1007.400 27.8 22 4.0         1357.67
2017-Apr-18 14:01:58 1006.900 28.9 21 4.3         1357.67
2017-Apr-18 15:01:54 1006.300 27.1 27 6.3         1357.67
2017-Apr-18 16:01:41 1006.300 23.4 34 6.5         1357.67
2017-Apr-18 17:01:43 1006.000 22.8 38 7.7 3.2 WSW     1357.67
2017-Apr-18 18:01:40 1005.900 21.6 40 7.4         1357.67
2017-Apr-18 19:01:35 1005.800 24.1 34 7.2 2.4 WSW     1357.67
2017-Apr-18 20:01:52 1005.700 20.8 40 6.7         1357.67
2017-Apr-18 21:01:56 1006.200 18.4 46 6.5         1357.67
2017-Apr-18 22:01:31 1006.800 15.6 52 5.8         1357.67
2017-Apr-18 23:01:36 1007.600 14.9 64 8.1 1.0 SE     1357.67

Temperatura Máxima:28°    Temperatura Mínima:
Presión Máxima:1010.200 Hpa    Presión Mínima:1005.700 Hpa


Volver